Time;durP1;ratioP1;P1;durP2;ratioP2;P2;SDS_P1;SDS_P2;PMS_P1;PMS_P2;Temp;Humidity;BMP_temperature;BMP_pressure;BME280_temperature;BME280_humidity;BME280_pressure;Samples;Min_cycle;Max_cycle;Signal;HPM_P1;HPM_P2
2023/01/17 00:00:57;;;;;;;3.53;1.67;;;;;;;16.34;58.34;98429.75;5043024;28;20054;-85
2023/01/17 00:03:22;;;;;;;4.22;1.70;;;;;;;16.34;58.43;98434.09;5077219;28;20119;-83
2023/01/17 00:11:15;;;;;;;3.63;1.63;;;;;;;16.34;58.16;98439.28;5077492;28;19966;-85
2023/01/17 00:13:41;;;;;;;3.45;1.45;;;;;;;16.32;58.27;98436.75;5026002;28;20032;-84
2023/01/17 00:16:06;;;;;;;3.35;1.55;;;;;;;16.32;58.14;98425.53;5025871;28;20021;-86
2023/01/17 00:18:32;;;;;;;2.72;1.25;;;;;;;16.32;58.08;98436.75;5025757;28;20128;-81
2023/01/17 00:26:25;;;;;;;3.95;1.50;;;;;;;16.32;57.99;98434.16;5061962;28;19938;-81
2023/01/17 01:35:40;;;;;;;3.08;1.25;;;;;;;16.21;57.84;98534.97;5058789;28;20043;-83
2023/01/17 01:38:06;;;;;;;2.03;1.02;;;;;;;16.20;58.03;98533.28;5071057;28;20033;-85
2023/01/17 01:40:31;;;;;;;2.92;1.05;;;;;;;16.20;57.74;98535.88;5054262;28;20028;-84
2023/01/17 01:42:59;;;;;;;2.75;1.13;;;;;;;16.18;57.78;98543.72;5087311;28;20031;-83
2023/01/17 01:45:30;;;;;;;2.95;1.35;;;;;;;16.19;57.49;98542.81;5081324;28;20052;-85
2023/01/17 01:48:05;;;;;;;2.53;0.93;;;;;;;16.19;57.58;98541.97;5059409;28;20021;-84
2023/01/17 01:50:33;;;;;;;2.38;1.25;;;;;;;16.18;57.85;98542.91;5059726;28;20029;-86
2023/01/17 01:53:02;;;;;;;2.60;1.40;;;;;;;16.18;57.62;98558.47;5057755;28;20020;-85
2023/01/17 01:55:33;;;;;;;2.35;1.17;;;;;;;16.17;57.48;98562.78;5057903;28;20032;-86
2023/01/17 01:58:06;;;;;;;2.10;1.00;;;;;;;16.17;57.63;98561.94;5057499;28;20218;-85
2023/01/17 02:00:35;;;;;;;3.17;1.30;;;;;;;16.18;57.66;98581.81;5057451;28;20024;-85
2023/01/17 02:03:22;;;;;;;2.65;1.20;;;;;;;16.17;57.78;98575.75;5057349;28;20367;-84
2023/01/17 02:05:48;;;;;;;2.72;1.00;;;;;;;16.16;57.62;98571.50;5056474;28;20044;-85
2023/01/17 02:08:16;;;;;;;1.83;1.10;;;;;;;16.16;57.64;98575.84;5040664;28;20120;-82
2023/01/17 02:10:45;;;;;;;3.17;1.20;;;;;;;16.15;57.58;98571.53;5074970;28;20044;-85
2023/01/17 02:13:14;;;;;;;2.95;0.90;;;;;;;16.16;57.57;98581.03;5057032;28;20024;-84
2023/01/17 02:15:49;;;;;;;2.65;1.05;;;;;;;16.15;57.55;98574.13;5056792;28;20474;-82
2023/01/17 02:18:48;;;;;;;2.20;0.98;;;;;;;16.16;57.42;98581.03;5056771;28;20124;-84
2023/01/17 02:21:40;;;;;;;2.63;1.25;;;;;;;16.13;57.52;98581.97;5056748;28;20028;-84
2023/01/17 02:24:18;;;;;;;3.00;1.10;;;;;;;16.15;57.50;98580.16;5057317;28;20031;-80
2023/01/17 02:26:52;;;;;;;3.30;1.10;;;;;;;16.14;57.84;98581.09;5056745;28;20025;-79
2023/01/17 02:29:49;;;;;;;3.15;1.02;;;;;;;16.13;57.64;98581.97;5074535;28;20032;-81
2023/01/17 02:32:34;;;;;;;2.20;1.13;;;;;;;16.13;57.48;98591.50;5059283;28;20594;-75
2023/01/17 02:35:19;;;;;;;3.38;1.20;;;;;;;16.12;57.38;98590.69;5074011;28;20035;-75
2023/01/17 02:38:04;;;;;;;1.73;1.02;;;;;;;16.12;57.26;98582.91;5055672;28;20028;-77
2023/01/17 02:40:37;;;;;;;2.22;1.00;;;;;;;16.11;57.58;98578.59;5056007;28;20020;-75
2023/01/17 02:43:10;;;;;;;3.10;1.00;;;;;;;16.12;57.25;98579.47;5055886;28;20357;-75
2023/01/17 02:45:36;;;;;;;1.25;0.90;;;;;;;16.12;57.37;98579.47;5056034;28;20259;-75
2023/01/17 02:48:04;;;;;;;2.30;1.00;;;;;;;16.10;57.24;98584.69;5055498;28;20032;-75
2023/01/17 02:51:04;;;;;;;2.00;1.02;;;;;;;16.11;57.33;98577.75;5055228;28;20044;-76
2023/01/17 02:53:36;;;;;;;1.95;0.98;;;;;;;16.10;57.21;98579.50;5016032;28;20059;-76
2023/01/17 02:56:40;;;;;;;4.20;1.35;;;;;;;16.10;57.28;98581.28;5055598;28;20429;-75
2023/01/17 02:59:30;;;;;;;3.30;1.00;;;;;;;16.08;57.16;98583.06;5073587;28;20032;-77
2023/01/17 03:02:03;;;;;;;2.30;1.00;;;;;;;16.08;57.44;98578.72;5055650;28;20413;-75
2023/01/17 03:04:46;;;;;;;2.08;0.88;;;;;;;16.08;57.30;98585.66;5055315;28;20129;-77
2023/01/17 03:07:15;;;;;;;;;;;;;;;16.08;57.39;98588.25;5055760;28;20020;-75
2023/01/17 03:09:47;;;;;;;1.85;0.90;;;;;;;16.09;57.39;98595.13;5055435;28;19909;-75
2023/01/17 03:12:12;;;;;;;2.67;0.88;;;;;;;16.07;57.26;98596.94;5039502;28;20059;-75
2023/01/17 03:14:37;;;;;;;3.60;1.13;;;;;;;16.07;57.30;98596.94;5022539;28;20048;-75
2023/01/17 03:17:04;;;;;;;2.33;0.90;;;;;;;16.07;57.02;98596.94;5022463;28;20424;-76
2023/01/17 03:19:30;;;;;;;3.03;1.02;;;;;;;16.06;57.08;98598.69;5039029;28;20029;-76
2023/01/17 03:21:55;;;;;;;1.85;0.80;;;;;;;16.07;57.05;98599.53;5055930;28;20074;-75
2023/01/17 03:24:21;;;;;;;2.10;0.73;;;;;;;16.06;57.18;98590.91;5038889;28;20036;-75
2023/01/17 03:26:46;;;;;;;2.63;0.90;;;;;;;16.06;57.09;98595.25;5038792;28;20027;-75
2023/01/17 03:29:13;;;;;;;2.15;0.93;;;;;;;16.04;57.14;98596.16;5038709;28;20032;-75
2023/01/17 03:31:38;;;;;;;1.83;0.90;;;;;;;16.04;57.09;98592.72;5022447;28;20028;-76
2023/01/17 03:34:04;;;;;;;2.15;0.88;;;;;;;16.03;57.08;98599.66;5055368;28;20036;-76
2023/01/17 03:36:30;;;;;;;1.85;0.70;;;;;;;16.04;56.84;98590.13;5054964;28;20024;-76
2023/01/17 03:38:55;;;;;;;3.33;0.98;;;;;;;16.04;56.96;98600.50;5055363;28;20039;-77
2023/01/17 03:41:20;;;;;;;1.92;0.80;;;;;;;16.04;56.78;98600.50;5022186;28;20029;-75
2023/01/17 03:43:46;;;;;;;2.42;0.93;;;;;;;16.02;56.93;98594.53;5022213;28;20033;-75
2023/01/17 03:46:21;;;;;;;2.35;0.85;;;;;;;16.03;57.02;98601.41;5038580;28;20059;-75
2023/01/17 03:48:47;;;;;;;2.47;0.80;;;;;;;16.01;56.78;98609.25;5054949;28;20043;-76
2023/01/17 03:51:12;;;;;;;1.77;0.85;;;;;;;16.02;56.85;98603.16;5038598;28;20024;-75
2023/01/17 03:53:38;;;;;;;1.73;0.82;;;;;;;16.01;57.01;98606.66;5072953;28;20496;-75
2023/01/17 03:56:04;;;;;;;1.67;0.77;;;;;;;16.01;56.79;98614.44;5038603;28;20032;-76
2023/01/17 03:58:29;;;;;;;1.95;0.90;;;;;;;16.02;56.67;98620.47;5038761;28;20382;-75
2023/01/17 04:00:54;;;;;;;2.08;0.60;;;;;;;16.02;56.57;98620.47;5038636;28;20032;-75
2023/01/17 04:03:20;;;;;;;1.88;0.90;;;;;;;16.01;56.81;98618.78;5025741;28;20454;-75
2023/01/17 04:05:46;;;;;;;1.95;0.77;;;;;;;16.01;56.78;98626.56;5025817;28;20029;-74
2023/01/17 04:08:11;;;;;;;1.95;0.75;;;;;;;16.00;56.67;98624.88;5042273;28;20548;-75
2023/01/17 04:10:37;;;;;;;1.73;0.70;;;;;;;16.00;56.63;98624.88;5042161;28;20475;-75
2023/01/17 04:13:02;;;;;;;2.20;0.80;;;;;;;15.99;56.63;98625.78;5025494;28;20033;-75
2023/01/17 04:15:28;;;;;;;1.55;0.68;;;;;;;15.99;56.67;98630.97;5025363;28;20497;-75
2023/01/17 04:17:53;;;;;;;2.92;0.70;;;;;;;15.97;56.67;98627.59;5058701;28;20037;-75
2023/01/17 04:20:32;;;;;;;2.13;0.73;;;;;;;15.99;56.60;98633.56;5025909;28;20033;-75
2023/01/17 04:22:58;;;;;;;3.45;0.90;;;;;;;15.98;56.63;98626.66;5059075;28;20020;-75
2023/01/17 04:25:24;;;;;;;1.83;0.80;;;;;;;15.98;56.91;98626.66;5026078;28;20029;-74
2023/01/17 04:27:50;;;;;;;2.35;0.80;;;;;;;15.98;56.92;98631.84;5058758;28;20033;-75
2023/01/17 04:30:16;;;;;;;1.05;0.68;;;;;;;15.99;56.71;98628.38;5042117;28;20033;-75
2023/01/17 04:32:41;;;;;;;2.28;0.80;;;;;;;15.98;56.74;98629.25;5058366;28;20089;-77
2023/01/17 04:35:08;;;;;;;1.60;0.73;;;;;;;15.98;56.60;98624.06;5041776;28;20475;-75
2023/01/17 04:37:34;;;;;;;0.82;0.50;;;;;;;15.98;56.84;98624.06;5025440;28;20025;-76
2023/01/17 04:39:59;;;;;;;2.28;0.70;;;;;;;15.97;56.82;98628.44;5041841;28;20032;-75
2023/01/17 04:42:24;;;;;;;1.52;0.75;;;;;;;15.96;56.60;98628.47;5041608;28;20036;-76
2023/01/17 04:44:50;;;;;;;1.02;0.63;;;;;;;15.96;56.68;98628.47;5058164;28;20497;-75
2023/01/17 04:47:15;;;;;;;1.23;0.55;;;;;;;15.96;57.08;98631.94;5041273;28;20489;-75
2023/01/17 04:49:40;;;;;;;2.70;0.80;;;;;;;15.97;56.72;98632.78;5041377;28;20086;-75
2023/01/17 04:52:06;;;;;;;1.90;0.85;;;;;;;15.96;56.56;98628.47;5024815;28;20032;-77
2023/01/17 04:54:31;;;;;;;1.30;0.60;;;;;;;15.94;56.69;98625.09;5025180;28;20078;-76
2023/01/17 04:56:56;;;;;;;2.30;0.70;;;;;;;15.94;56.55;98628.56;5041205;28;20060;-77
2023/01/17 04:59:22;;;;;;;1.80;0.63;;;;;;;15.94;56.57;98638.06;5041271;28;20055;-75
2023/01/17 05:01:48;;;;;;;1.65;0.60;;;;;;;15.93;56.50;98638.97;5075702;28;20028;-77
2023/01/17 05:04:13;;;;;;;1.17;0.50;;;;;;;15.94;56.49;98640.66;5024633;28;20053;-76
2023/01/17 05:06:39;;;;;;;1.88;0.63;;;;;;;15.92;56.57;98635.56;5040874;28;20160;-76
2023/01/17 05:09:05;;;;;;;0.75;0.40;;;;;;;15.93;56.50;98641.56;5041074;28;20035;-76
2023/01/17 05:11:31;;;;;;;1.23;0.60;;;;;;;15.91;56.48;98641.63;5041174;28;20120;-76
2023/01/17 05:13:56;;;;;;;1.75;0.77;;;;;;;15.93;56.53;98641.56;5040623;28;20030;-75
2023/01/17 05:16:22;;;;;;;1.83;0.85;;;;;;;15.93;56.59;98641.56;5040983;28;20063;-75
2023/01/17 05:18:51;;;;;;;2.28;0.70;;;;;;;15.94;56.68;98643.25;5057578;28;20062;-75
2023/01/17 05:21:16;;;;;;;0.65;0.40;;;;;;;15.93;56.25;98646.75;5041046;28;20029;-77
2023/01/17 05:23:42;;;;;;;0.80;0.50;;;;;;;15.93;56.49;98647.59;5024544;28;20378;-75
2023/01/17 05:26:07;;;;;;;1.58;0.68;;;;;;;15.94;56.56;98651.03;5057606;28;20035;-76
2023/01/17 05:28:33;;;;;;;1.40;0.60;;;;;;;15.95;56.48;98652.75;5057530;28;20475;-75
2023/01/17 05:30:58;;;;;;;1.90;0.70;;;;;;;15.94;56.41;98657.09;5040606;28;20032;-75
2023/01/17 05:33:24;;;;;;;1.05;0.40;;;;;;;15.94;56.23;98661.41;5060171;28;20013;-86
2023/01/17 05:35:49;;;;;;;1.02;0.50;;;;;;;15.94;56.48;98659.69;5025413;28;20029;-85
2023/01/17 05:38:15;;;;;;;2.35;0.60;;;;;;;15.95;56.44;98673.50;5058289;28;20028;-86
2023/01/17 05:40:40;;;;;;;1.42;0.57;;;;;;;15.95;56.32;98676.09;5058445;28;20039;-86
2023/01/17 05:43:06;;;;;;;0.80;0.50;;;;;;;15.95;56.39;98682.09;5076123;28;20052;-86
2023/01/17 05:45:32;;;;;;;0.98;0.60;;;;;;;15.95;56.50;98682.09;5041589;28;20029;-85
2023/01/17 05:47:58;;;;;;;1.05;0.50;;;;;;;15.95;56.43;98681.28;5058170;28;20032;-86
2023/01/17 05:50:29;;;;;;;1.25;0.52;;;;;;;15.94;56.40;98683.03;5058238;28;20040;-86
2023/01/17 05:53:06;;;;;;;0.90;0.50;;;;;;;15.95;56.47;98689.91;5058117;28;20028;-82
2023/01/17 05:55:32;;;;;;;1.58;0.60;;;;;;;15.94;56.24;98693.41;5057943;28;20031;-85
2023/01/17 05:57:59;;;;;;;2.08;0.70;;;;;;;15.94;56.46;98695.13;5041068;28;20033;-85
2023/01/17 06:00:25;;;;;;;1.70;0.60;;;;;;;15.94;56.28;98692.53;5057746;28;20360;-88
2023/01/17 06:02:55;;;;;;;1.67;0.60;;;;;;;15.94;56.21;98696.00;5059791;28;20023;-83
2023/01/17 06:05:21;;;;;;;6.10;2.35;;;;;;;15.96;55.94;98693.31;5060238;28;20102;-87
2023/01/17 06:07:47;;;;;;;10.60;4.18;;;;;;;15.96;56.25;98682.94;5023823;28;20025;-82
2023/01/17 06:10:14;;;;;;;14.45;5.10;;;;;;;15.96;56.08;98694.19;5040234;28;20077;-84
2023/01/17 06:12:40;;;;;;;13.02;4.95;;;;;;;15.95;56.19;98689.06;5056917;28;20020;-84
2023/01/17 06:15:07;;;;;;;12.85;5.05;;;;;;;15.95;56.17;98691.66;5056753;28;20017;-85
2023/01/17 06:17:33;;;;;;;11.57;4.90;;;;;;;15.95;56.21;98697.69;5040494;28;20025;-82
2023/01/17 06:19:58;;;;;;;13.35;5.13;;;;;;;15.95;56.16;98695.09;5040481;28;20542;-85
2023/01/17 06:22:24;;;;;;;13.65;5.45;;;;;;;15.96;56.19;98699.38;5024159;28;20124;-84
2023/01/17 06:24:49;;;;;;;10.93;4.60;;;;;;;15.95;56.17;98700.28;5039593;28;20123;-85
2023/01/17 06:27:14;;;;;;;11.90;4.22;;;;;;;15.96;56.44;98698.50;5023562;28;20020;-84
2023/01/17 06:29:40;;;;;;;14.93;5.18;;;;;;;15.95;56.20;98702.03;5040388;28;20032;-84
2023/01/17 06:32:05;;;;;;;12.68;4.80;;;;;;;15.96;56.46;98701.97;5024035;28;20029;-84
2023/01/17 06:34:31;;;;;;;12.63;4.68;;;;;;;15.97;56.38;98702.81;5040628;28;20530;-84
2023/01/17 06:36:57;;;;;;;13.10;4.97;;;;;;;15.96;56.28;98698.50;5024420;28;20036;-87
2023/01/17 06:39:23;;;;;;;12.40;4.53;;;;;;;15.96;56.47;98707.16;5041171;28;20039;-89
2023/01/17 06:41:48;;;;;;;9.27;4.22;;;;;;;15.96;56.50;98712.34;5024652;28;20021;-86
2023/01/17 06:44:13;;;;;;;10.57;4.40;;;;;;;15.96;56.26;98698.50;5040786;28;20039;-86
2023/01/17 06:46:39;;;;;;;15.63;5.57;;;;;;;15.96;56.27;98701.97;5024432;28;20503;-86
2023/01/17 06:49:05;;;;;;;15.48;5.47;;;;;;;15.97;56.27;98708.84;5056939;28;20036;-87
2023/01/17 06:51:30;;;;;;;16.73;5.43;;;;;;;15.98;56.42;98707.09;5057086;28;20063;-84
2023/01/17 06:53:56;;;;;;;13.77;5.60;;;;;;;15.98;56.46;98713.16;5040249;28;20119;-89
2023/01/17 06:56:21;;;;;;;17.05;5.60;;;;;;;15.98;56.49;98713.16;5023577;28;20037;-87
2023/01/17 06:58:50;;;;;;;14.48;4.88;;;;;;;15.99;56.61;98716.59;5023670;28;20089;-83
2023/01/17 07:01:17;;;;;;;15.73;5.38;;;;;;;15.98;56.44;98714.88;5056600;28;20029;-85
2023/01/17 07:03:42;;;;;;;13.32;5.38;;;;;;;15.98;56.42;98718.34;5056718;28;20024;-86
2023/01/17 07:06:08;;;;;;;13.25;5.55;;;;;;;15.98;56.42;98722.66;5024500;28;20060;-87
2023/01/17 07:08:36;;;;;;;9.77;4.53;;;;;;;15.97;56.23;98714.03;5075942;28;20043;-86
2023/01/17 07:11:04;;;;;;;13.93;5.35;;;;;;;15.98;56.41;98725.25;5061795;28;20029;-85
2023/01/17 07:13:33;;;;;;;10.40;4.57;;;;;;;15.97;56.39;98721.81;5062924;28;20028;-87
2023/01/17 07:16:01;;;;;;;12.77;5.15;;;;;;;15.98;56.42;98727.84;5083036;28;20474;-86
2023/01/17 07:18:27;;;;;;;11.50;4.93;;;;;;;15.97;56.63;98732.19;5062574;28;20036;-88
2023/01/17 07:20:53;;;;;;;12.10;4.95;;;;;;;15.97;56.51;98728.75;5066040;28;20027;-87
2023/01/17 07:23:21;;;;;;;12.32;4.97;;;;;;;15.96;56.41;98727.91;5043801;28;20051;-88
2023/01/17 07:25:55;;;;;;;12.00;4.70;;;;;;;15.98;56.31;98733.91;5076105;28;20029;-87
2023/01/17 07:28:21;;;;;;;11.55;4.20;;;;;;;15.98;56.48;98733.03;5060391;28;20021;-88
2023/01/17 07:30:47;;;;;;;10.25;4.45;;;;;;;15.97;56.39;98729.59;5057098;28;20153;-88
2023/01/17 07:33:12;;;;;;;8.32;3.90;;;;;;;15.98;56.27;98733.03;5040905;28;20471;-87
2023/01/17 07:35:38;;;;;;;9.57;4.30;;;;;;;15.98;56.11;98733.91;5041612;28;20029;-86
2023/01/17 07:38:04;;;;;;;8.32;3.88;;;;;;;15.98;56.18;98731.31;5078385;28;20408;-86
2023/01/17 07:40:30;;;;;;;7.28;3.78;;;;;;;15.97;56.39;98732.19;5043942;28;20123;-85
2023/01/17 07:43:00;;;;;;;7.88;3.75;;;;;;;15.97;56.41;98726.16;5044171;28;20080;-84
2023/01/17 07:45:26;;;;;;;7.82;3.70;;;;;;;15.97;56.23;98736.53;5060426;28;20035;-86
2023/01/17 07:47:52;;;;;;;7.47;3.72;;;;;;;15.97;56.01;98736.53;5060138;28;20025;-86
2023/01/17 07:50:17;;;;;;;7.22;3.42;;;;;;;15.98;56.21;98725.25;5043748;28;20028;-85
2023/01/17 07:52:47;;;;;;;10.10;3.83;;;;;;;15.97;56.10;98737.38;5043964;28;20119;-87
2023/01/17 07:55:12;;;;;;;8.40;3.67;;;;;;;15.98;56.23;98731.31;5060827;28;20069;-83
2023/01/17 07:57:38;;;;;;;7.88;3.55;;;;;;;15.98;55.88;98735.63;5060745;28;20107;-87
2023/01/17 08:00:04;;;;;;;6.97;3.58;;;;;;;15.98;56.09;98733.91;5062677;28;20036;-87
2023/01/17 08:02:30;;;;;;;7.13;3.00;;;;;;;15.99;56.18;98737.34;5043914;28;20062;-83
2023/01/17 08:04:55;;;;;;;7.40;3.40;;;;;;;15.98;56.18;98726.13;5040108;28;20170;-88
2023/01/17 08:07:20;;;;;;;7.53;3.35;;;;;;;15.99;56.03;98729.56;5039749;28;20113;-87
2023/01/17 08:09:48;;;;;;;6.47;3.25;;;;;;;15.99;56.07;98732.16;5039758;28;20380;-85
2023/01/17 08:12:14;;;;;;;5.55;3.00;;;;;;;15.99;55.85;98732.16;5043299;28;20052;-87
2023/01/17 08:14:40;;;;;;;6.85;3.20;;;;;;;15.99;55.83;98724.34;5057711;28;20060;-88
2023/01/17 08:17:06;;;;;;;6.47;2.97;;;;;;;15.99;55.75;98725.19;5056808;28;20075;-88
2023/01/17 08:19:32;;;;;;;6.32;2.97;;;;;;;15.99;55.79;98726.97;5056514;28;20033;-88
2023/01/17 08:21:57;;;;;;;5.53;2.50;;;;;;;16.00;55.88;98733.81;5023452;28;20024;-89
2023/01/17 08:24:22;;;;;;;6.55;2.95;;;;;;;15.99;55.85;98729.56;5056338;28;20081;-87
2023/01/17 08:26:48;;;;;;;5.60;2.72;;;;;;;16.00;55.81;98734.69;5039626;28;20059;-88
2023/01/17 08:29:14;;;;;;;6.32;2.92;;;;;;;16.02;55.75;98734.63;5056321;28;20183;-84
2023/01/17 08:31:39;;;;;;;5.72;2.58;;;;;;;16.00;55.73;98734.69;5022711;28;20038;-86
2023/01/17 08:34:05;;;;;;;5.50;2.53;;;;;;;16.01;55.76;98740.72;5039744;28;20052;-87
2023/01/17 08:36:30;;;;;;;5.00;2.85;;;;;;;16.02;55.88;98740.63;5039587;28;20040;-84
2023/01/17 08:38:56;;;;;;;4.40;2.53;;;;;;;16.06;55.53;98740.53;5022611;28;20036;-88
2023/01/17 08:41:23;;;;;;;5.07;2.58;;;;;;;16.10;55.58;98744.72;5055750;28;20158;-83
2023/01/17 08:43:50;;;;;;;5.32;2.55;;;;;;;16.12;55.70;98745.53;5055833;28;20036;-87
2023/01/17 08:46:16;;;;;;;4.40;2.17;;;;;;;16.13;55.48;98747.19;5038802;28;20033;-85
2023/01/17 08:48:42;;;;;;;4.60;2.25;;;;;;;16.16;55.55;98754.88;5054316;28;20044;-85
2023/01/17 08:51:09;;;;;;;7.88;2.58;;;;;;;16.17;55.59;98756.56;5038710;28;20132;-81
2023/01/17 08:53:34;;;;;;;5.45;2.47;;;;;;;16.19;55.61;98759.94;5039806;28;20029;-83
2023/01/17 08:56:02;;;;;;;5.10;2.42;;;;;;;16.19;55.34;98763.38;5036605;28;20025;-82
2023/01/17 08:58:29;;;;;;;4.30;2.33;;;;;;;16.21;55.49;98764.19;5018711;28;20030;-84
2023/01/17 09:00:58;;;;;;;3.95;2.25;;;;;;;16.22;55.39;98773.66;5019013;28;20034;-82
2023/01/17 09:03:23;;;;;;;4.78;1.80;;;;;;;16.22;55.34;98768.47;5046623;28;20032;-84
2023/01/17 09:05:49;;;;;;;4.35;2.33;;;;;;;16.24;55.50;98771.00;5038086;28;20407;-85
2023/01/17 09:08:14;;;;;;;6.07;2.40;;;;;;;16.24;55.55;98769.28;5021784;28;20082;-82
2023/01/17 09:10:39;;;;;;;4.90;2.20;;;;;;;16.26;55.54;98771.78;5021553;28;20025;-85
2023/01/17 09:13:06;;;;;;;3.90;2.10;;;;;;;16.24;55.24;98761.50;5021730;28;20029;-81
2023/01/17 09:15:31;;;;;;;4.15;2.05;;;;;;;16.24;55.21;98769.28;5021730;28;20445;-84
2023/01/17 09:17:57;;;;;;;3.92;1.65;;;;;;;16.24;55.25;98764.09;5054822;28;20025;-85
2023/01/17 09:20:23;;;;;;;3.70;1.80;;;;;;;16.24;55.39;98769.28;5038385;28;20025;-85
2023/01/17 09:22:49;;;;;;;4.38;1.88;;;;;;;16.24;55.00;98766.69;5038104;28;20121;-82
2023/01/17 09:25:14;;;;;;;3.20;1.80;;;;;;;16.25;55.27;98768.34;5021874;28;20040;-84
2023/01/17 09:27:44;;;;;;;3.47;1.80;;;;;;;16.25;55.49;98767.50;5021725;28;20025;-84
2023/01/17 09:30:10;;;;;;;2.45;1.70;;;;;;;16.23;55.05;98771.91;5054515;28;20116;-83
2023/01/17 09:32:35;;;;;;;2.97;1.50;;;;;;;16.22;55.03;98781.47;5054728;28;20070;-81
2023/01/17 09:35:02;;;;;;;2.75;1.55;;;;;;;16.24;55.03;98783.97;5039218;28;20025;-81
2023/01/17 09:37:27;;;;;;;4.00;1.88;;;;;;;16.24;55.05;98787.44;5055646;28;20025;-84
2023/01/17 09:39:53;;;;;;;3.45;1.77;;;;;;;16.24;55.07;98791.75;5037965;28;20032;-86
2023/01/17 09:42:44;;;;;;;3.33;1.60;;;;;;;16.24;54.89;98792.63;5038179;28;20120;-87
2023/01/17 09:45:18;;;;;;;3.97;1.60;;;;;;;16.25;55.11;98798.66;5033831;28;20055;-83
2023/01/17 09:47:52;;;;;;;2.97;1.50;;;;;;;16.24;55.06;98802.13;5055495;28;20422;-85
2023/01/17 09:50:30;;;;;;;2.63;1.35;;;;;;;16.24;54.93;98805.59;5055341;28;20025;-84
2023/01/17 09:53:04;;;;;;;3.35;1.58;;;;;;;16.25;55.10;98807.28;5054068;28;20036;-82
2023/01/17 09:55:33;;;;;;;;;;;;;;;16.24;54.85;98808.19;5054328;28;20032;-85
2023/01/17 09:58:07;;;;;;;2.67;1.25;;;;;;;16.25;55.13;98809.03;5054043;28;19966;-85
2023/01/17 10:00:37;;;;;;;1.80;1.17;;;;;;;16.24;54.99;98815.13;5053596;28;20040;-85
2023/01/17 10:03:30;;;;;;;3.47;1.80;;;;;;;16.23;54.94;98810.84;5044730;28;20013;-82
2023/01/17 10:06:03;;;;;;;2.70;1.58;;;;;;;16.23;54.90;98810.84;5072976;28;20050;-83
2023/01/17 10:08:52;;;;;;;2.97;1.40;;;;;;;16.22;54.76;98814.31;5067763;28;20021;-84
2023/01/17 10:11:42;;;;;;;3.30;1.50;;;;;;;16.23;54.90;98813.44;5050590;28;20075;-84
2023/01/17 10:14:21;;;;;;;2.72;1.48;;;;;;;16.23;54.84;98818.63;5041608;28;20052;-83
2023/01/17 10:16:52;;;;;;;4.13;1.50;;;;;;;16.23;54.43;98816.03;5060777;28;20025;-81
2023/01/17 10:19:24;;;;;;;3.88;1.40;;;;;;;16.22;54.85;98828.16;5056414;28;20028;-85
2023/01/17 10:22:14;;;;;;;2.63;1.30;;;;;;;16.22;54.63;98822.97;5037881;28;20039;-86
2023/01/17 10:25:11;;;;;;;2.00;1.20;;;;;;;16.24;54.90;98823.78;5038081;28;20029;-83
2023/01/17 10:27:42;;;;;;;3.22;1.30;;;;;;;16.25;54.51;98830.63;5054727;28;20465;-75
2023/01/17 10:30:21;;;;;;;2.03;1.20;;;;;;;16.27;54.90;98821.97;5036093;28;20074;-77
2023/01/17 10:32:48;;;;;;;1.88;1.25;;;;;;;16.28;54.87;98821.06;5054015;28;20108;-76
2023/01/17 10:35:24;;;;;;;2.00;1.10;;;;;;;16.28;54.69;98821.91;5037688;28;20353;-76
2023/01/17 10:37:55;;;;;;;2.42;1.23;;;;;;;16.28;54.64;98827.09;5041102;28;20032;-77
2023/01/17 10:40:44;;;;;;;1.98;1.10;;;;;;;16.28;54.81;98821.06;5039487;28;20518;-77
2023/01/17 10:43:23;;;;;;;1.92;1.00;;;;;;;16.28;54.56;98819.28;5048901;28;20478;-75
2023/01/17 10:45:54;;;;;;;2.20;1.30;;;;;;;16.29;54.55;98817.53;5057579;28;20025;-76
2023/01/17 10:48:42;;;;;;;3.75;1.10;;;;;;;16.28;54.53;98826.25;5060348;28;20066;-76
2023/01/17 10:51:29;;;;;;;1.80;1.10;;;;;;;16.29;54.69;98820.13;5055822;28;20066;-76
2023/01/17 10:54:10;;;;;;;2.40;1.08;;;;;;;16.30;54.62;98821.84;5055360;28;20704;-75
2023/01/17 10:56:37;;;;;;;1.88;0.93;;;;;;;16.29;54.45;98822.72;5059205;28;20021;-76
2023/01/17 10:59:31;;;;;;;1.90;1.10;;;;;;;16.30;54.36;98829.63;5035661;28;20033;-77
2023/01/17 11:02:06;;;;;;;1.92;1.10;;;;;;;16.30;54.52;98821.84;5053674;28;20025;-76
2023/01/17 11:04:37;;;;;;;2.03;1.02;;;;;;;16.33;54.19;98819.13;5021020;28;20048;-76
2023/01/17 11:07:13;;;;;;;1.95;0.90;;;;;;;16.32;54.21;98820.88;5053729;28;20029;-75
2023/01/17 11:09:41;;;;;;;1.70;1.00;;;;;;;16.33;54.32;98819.13;5035680;28;20024;-77
2023/01/17 11:12:39;;;;;;;2.58;0.90;;;;;;;16.34;54.34;98823.44;5053434;28;20044;-77
2023/01/17 11:15:04;;;;;;;2.20;1.00;;;;;;;16.34;54.09;98823.44;5047820;28;20037;-75
2023/01/17 11:17:31;;;;;;;1.75;1.00;;;;;;;16.35;54.22;98827.72;5035261;28;20033;-75
2023/01/17 11:20:15;;;;;;;1.90;1.00;;;;;;;16.34;54.33;98826.88;5019286;28;20479;-76
2023/01/17 11:22:48;;;;;;;1.30;0.80;;;;;;;16.36;53.89;98821.63;5035584;28;20021;-79
2023/01/17 11:25:21;;;;;;;2.20;1.02;;;;;;;16.35;54.56;98820.78;5035695;28;20031;-77
2023/01/17 11:28:02;;;;;;;1.85;0.88;;;;;;;16.37;54.04;98823.31;5035684;28;20013;-76
2023/01/17 11:30:28;;;;;;;2.65;1.17;;;;;;;16.38;54.06;98822.41;5053322;28;20035;-77
2023/01/17 11:33:03;;;;;;;1.73;0.95;;;;;;;16.37;54.19;98828.50;5035770;28;20033;-75
2023/01/17 11:35:33;;;;;;;2.97;0.85;;;;;;;16.36;54.01;98826.81;5035324;28;20021;-75
2023/01/17 11:38:01;;;;;;;1.23;0.75;;;;;;;16.36;54.01;98824.22;5035543;28;20029;-84
2023/01/17 11:40:30;;;;;;;1.48;0.80;;;;;;;16.36;53.96;98827.66;5054667;28;20016;-84
2023/01/17 11:43:05;;;;;;;2.00;1.00;;;;;;;16.36;54.01;98822.47;5037712;28;20452;-82
2023/01/17 11:45:32;;;;;;;1.35;0.80;;;;;;;16.34;54.09;98816.50;5054660;28;20052;-83
2023/01/17 11:48:07;;;;;;;1.80;0.90;;;;;;;16.35;53.98;98814.72;5019975;28;20040;-84
2023/01/17 11:50:36;;;;;;;1.13;0.70;;;;;;;16.36;54.18;98817.28;5036793;28;20021;-84
2023/01/17 11:53:16;;;;;;;1.45;0.80;;;;;;;16.36;54.08;98814.69;5036842;28;20031;-84
2023/01/17 11:56:17;;;;;;;1.73;0.80;;;;;;;16.36;54.05;98813.84;5036461;28;20111;-83
2023/01/17 11:58:46;;;;;;;2.03;0.90;;;;;;;16.36;53.98;98806.91;5036306;28;20493;-83
2023/01/17 12:01:30;;;;;;;1.45;0.80;;;;;;;16.36;53.94;98808.66;5036644;28;20033;-81
2023/01/17 12:04:17;;;;;;;2.03;0.80;;;;;;;16.36;54.18;98809.50;5037270;28;20082;-83
2023/01/17 12:07:26;;;;;;;1.38;0.70;;;;;;;16.37;53.91;98798.19;5036250;28;20053;-82
2023/01/17 12:10:06;;;;;;;1.75;0.75;;;;;;;16.37;53.95;98795.59;4973205;28;20035;-82
2023/01/17 12:15:52;;;;;;;2.38;0.98;;;;;;;16.36;53.86;98798.28;5054044;28;20125;-81
2023/01/17 12:18:20;;;;;;;1.80;0.93;;;;;;;16.36;53.94;98806.91;5035945;28;20036;-81
2023/01/17 12:21:16;;;;;;;1.60;0.80;;;;;;;16.35;53.90;98806.94;5037152;28;20032;-83
2023/01/17 12:24:12;;;;;;;1.50;0.80;;;;;;;16.36;54.13;98806.06;5057977;28;20017;-81
2023/01/17 12:26:49;;;;;;;1.60;0.80;;;;;;;16.35;54.00;98804.34;5041208;28;20029;-86
2023/01/17 12:29:23;;;;;;;1.80;0.80;;;;;;;16.35;53.97;98799.16;5040998;28;20043;-86
2023/01/17 12:32:20;;;;;;;1.08;0.75;;;;;;;16.36;53.76;98799.09;5040197;28;20526;-83
2023/01/17 12:35:13;;;;;;;1.60;0.98;;;;;;;16.37;54.01;98794.75;5039895;28;20162;-81
2023/01/17 12:37:52;;;;;;;1.42;0.70;;;;;;;16.37;53.90;98794.75;5039300;28;20025;-84
2023/01/17 12:40:24;;;;;;;1.38;0.75;;;;;;;16.37;53.95;98792.16;5039400;28;20025;-82
2023/01/17 12:42:55;;;;;;;0.80;0.60;;;;;;;16.37;53.84;98784.38;5057214;28;20031;-82
2023/01/17 12:45:42;;;;;;;1.40;0.70;;;;;;;16.37;53.72;98781.78;5039350;28;20037;-84
2023/01/17 12:48:15;;;;;;;1.80;0.70;;;;;;;16.38;54.08;98778.28;5040306;28;20108;-87
2023/01/17 12:50:48;;;;;;;2.05;1.00;;;;;;;16.40;54.01;98786.88;5064896;28;20029;-84
2023/01/17 12:53:31;;;;;;;1.25;0.60;;;;;;;16.38;53.74;98783.47;5059791;28;20024;-83
2023/01/17 12:56:16;;;;;;;2.08;0.80;;;;;;;16.37;53.81;98784.38;5059148;28;20017;-87
2023/01/17 12:58:46;;;;;;;4.22;0.80;;;;;;;16.37;53.96;98792.16;5076805;28;20052;-85
2023/01/17 13:01:26;;;;;;;2.95;0.63;;;;;;;16.37;54.12;98784.38;5047216;28;20025;-87
2023/01/17 13:04:36;;;;;;;2.47;0.70;;;;;;;16.36;53.92;98785.28;5059439;28;20025;-85
2023/01/17 13:07:16;;;;;;;2.00;0.70;;;;;;;16.34;53.79;98777.56;5042005;28;20049;-83
2023/01/17 13:09:50;;;;;;;1.02;0.50;;;;;;;16.37;53.95;98786.97;5039653;28;20037;-84
2023/01/17 13:12:19;;;;;;;2.15;0.60;;;;;;;16.35;53.75;98788.78;5039899;28;20059;-86